Time;durP1;ratioP1;P1;durP2;ratioP2;P2;SDS_P1;SDS_P2;PMS_P1;PMS_P2;Temp;Humidity;BMP_temperature;BMP_pressure;BME280_temperature;BME280_humidity;BME280_pressure;Samples;Min_cycle;Max_cycle;Signal;HPM_P1;HPM_P2
2023/05/02 00:00:17;;;;;;;50.63;35.15;;;;;;;10.50;100.00;101141.13;4974542;28;20059;-78
2023/05/02 00:02:44;;;;;;;48.85;35.72;;;;;;;10.41;100.00;101139.34;4975837;28;20082;-78
2023/05/02 00:05:11;;;;;;;50.13;35.92;;;;;;;10.29;100.00;101136.94;4973331;28;20155;-78
2023/05/02 00:07:39;;;;;;;50.30;37.25;;;;;;;10.23;100.00;101142.72;4974399;28;20457;-79
2023/05/02 00:10:07;;;;;;;53.90;39.20;;;;;;;10.15;100.00;101142.56;4975654;28;20487;-79
2023/05/02 00:12:34;;;;;;;51.38;37.55;;;;;;;10.08;100.00;101151.13;4976574;28;20058;-78
2023/05/02 00:15:00;;;;;;;52.97;38.28;;;;;;;10.01;100.00;101153.47;4975235;28;20059;-80
2023/05/02 00:17:27;;;;;;;53.90;35.95;;;;;;;9.96;100.00;101155.66;4974030;28;20308;-80
2023/05/02 00:19:54;;;;;;;52.33;37.83;;;;;;;9.92;100.00;101149.88;4978226;28;20078;-79
2023/05/02 00:22:20;;;;;;;52.60;38.75;;;;;;;9.85;100.00;101158.44;4979613;28;20538;-79
2023/05/02 00:24:48;;;;;;;55.95;38.50;;;;;;;9.76;100.00;101156.66;4982229;28;20062;-79
2023/05/02 00:27:15;;;;;;;51.40;37.17;;;;;;;9.69;100.00;101160.78;4980180;28;20112;-78
2023/05/02 00:29:41;;;;;;;52.63;37.88;;;;;;;9.63;100.00;101157.75;4980242;28;20066;-79
2023/05/02 00:32:08;;;;;;;54.30;38.58;;;;;;;9.60;100.00;101165.03;4977843;28;20093;-79
2023/05/02 00:34:35;;;;;;;57.03;38.25;;;;;;;9.55;100.00;101165.44;4977355;28;20133;-79
2023/05/02 00:37:01;;;;;;;64.50;38.83;;;;;;;9.51;100.00;101166.66;4976807;28;20133;-80
2023/05/02 00:39:28;;;;;;;58.55;39.67;;;;;;;9.45;100.00;101175.03;4975482;28;20138;-79
2023/05/02 00:41:59;;;;;;;53.47;39.03;;;;;;;9.42;100.00;101184.97;4976852;28;20058;-79
2023/05/02 00:44:26;;;;;;;53.85;37.95;;;;;;;9.35;100.00;101184.69;4977134;28;20103;-79
2023/05/02 00:46:52;;;;;;;56.38;39.00;;;;;;;9.35;100.00;101189.91;4976917;28;20474;-78
2023/05/02 00:49:19;;;;;;;55.95;38.00;;;;;;;9.33;100.00;101191.81;4978099;28;20106;-79
2023/05/02 00:51:46;;;;;;;58.90;38.75;;;;;;;9.44;100.00;101194.31;4975183;28;20062;-78
2023/05/02 00:54:13;;;;;;;54.90;37.30;;;;;;;9.48;100.00;101200.06;4973837;28;20137;-78
2023/05/02 00:56:40;;;;;;;53.83;38.17;;;;;;;9.43;100.00;101197.91;4973077;28;20108;-78
2023/05/02 00:59:10;;;;;;;52.72;36.90;;;;;;;9.40;100.00;101198.16;4974295;28;20103;-79
2023/05/02 01:01:45;;;;;;;54.10;37.10;;;;;;;9.39;100.00;101200.91;4976662;28;20146;-78
2023/05/02 01:04:23;;;;;;;58.85;38.78;;;;;;;9.33;100.00;101197.03;4977800;28;20126;-79
2023/05/02 01:07:02;;;;;;;60.85;39.45;;;;;;;9.27;100.00;101213.25;4969379;28;20134;-79
2023/05/02 01:09:39;;;;;;;62.80;41.30;;;;;;;9.24;100.00;101213.50;4977118;28;20046;-79
2023/05/02 01:12:15;;;;;;;67.45;42.95;;;;;;;9.28;100.00;101220.94;4973174;28;20101;-80
2023/05/02 01:14:46;;;;;;;79.90;47.55;;;;;;;9.26;100.00;101224.66;4975888;28;20138;-79
2023/05/02 01:17:15;;;;;;;73.32;48.03;;;;;;;9.25;100.00;101228.22;4974375;28;20050;-78
2023/05/02 01:19:48;;;;;;;78.32;48.50;;;;;;;9.24;100.00;101226.56;4979269;28;20053;-79
2023/05/02 01:22:16;;;;;;;78.60;47.67;;;;;;;9.15;100.00;101229.97;4982253;28;20506;-79
2023/05/02 01:24:54;;;;;;;82.10;50.25;;;;;;;9.14;100.00;101234.34;4981357;28;20110;-79
2023/05/02 01:27:30;;;;;;;85.10;50.95;;;;;;;9.08;100.00;101231.44;4978313;28;20114;-79
2023/05/02 01:30:01;;;;;;;87.13;51.13;;;;;;;9.10;100.00;101256.47;4980182;28;20122;-79
2023/05/02 01:32:30;;;;;;;82.00;49.10;;;;;;;9.03;100.00;101254.50;4978989;28;20142;-80
2023/05/02 01:34:58;;;;;;;92.07;50.90;;;;;;;9.09;100.00;101272.25;4979108;28;20047;-78
2023/05/02 01:37:26;;;;;;;90.00;51.17;;;;;;;9.10;100.00;101261.69;4979461;28;20522;-81
2023/05/02 01:39:55;;;;;;;83.30;48.83;;;;;;;9.04;100.00;101267.44;4979470;28;20054;-79
2023/05/02 01:42:23;;;;;;;91.57;49.58;;;;;;;9.08;100.00;101273.22;4977675;28;20063;-80
2023/05/02 01:44:54;;;;;;;90.90;50.63;;;;;;;9.05;100.00;101273.47;4979760;28;20134;-80
2023/05/02 01:47:23;;;;;;;89.60;50.00;;;;;;;9.04;100.00;101266.59;4979205;28;20165;-81
2023/05/02 01:49:50;;;;;;;90.10;51.72;;;;;;;8.96;100.00;101273.31;4977607;28;20043;-81
2023/05/02 01:52:18;;;;;;;93.43;50.33;;;;;;;9.04;100.00;101277.03;4978642;28;20051;-80
2023/05/02 01:54:45;;;;;;;94.78;50.05;;;;;;;9.10;100.00;101279.13;4981250;28;20086;-79
2023/05/02 01:57:12;;;;;;;91.30;49.60;;;;;;;9.19;100.00;101294.03;4981533;28;20122;-80
2023/05/02 01:59:40;;;;;;;90.97;49.83;;;;;;;9.30;100.00;101301.78;4982640;28;20141;-80
2023/05/02 02:02:09;;;;;;;93.15;48.10;;;;;;;9.38;100.00;101295.91;4981131;28;20074;-79
2023/05/02 02:04:39;;;;;;;89.78;49.15;;;;;;;9.42;100.00;101292.06;4974618;28;20205;-79
2023/05/02 02:07:08;;;;;;;81.57;46.65;;;;;;;9.44;100.00;101298.81;4978857;28;20106;-80
2023/05/02 02:09:35;;;;;;;88.80;48.40;;;;;;;9.53;100.00;101302.38;4976632;28;20122;-80
2023/05/02 02:12:06;;;;;;;89.15;49.72;;;;;;;9.60;100.00;101308.75;4977030;28;20465;-78
2023/05/02 02:14:36;;;;;;;83.35;48.38;;;;;;;9.65;100.00;101304.78;4968748;28;20110;-79
2023/05/02 02:17:11;;;;;;;85.45;46.60;;;;;;;9.68;100.00;101308.91;4977244;28;20061;-79
2023/05/02 02:19:40;;;;;;;89.72;48.22;;;;;;;9.70;100.00;101314.00;4978900;28;20042;-79
2023/05/02 02:22:07;;;;;;;81.93;46.47;;;;;;;9.80;100.00;101320.09;4978098;28;20074;-79
2023/05/02 02:24:36;;;;;;;81.22;44.35;;;;;;;9.79;100.00;101313.19;4979689;28;20115;-79
2023/05/02 02:27:03;;;;;;;76.97;42.67;;;;;;;9.81;100.00;101308.66;4978343;28;20062;-80
2023/05/02 02:29:30;;;;;;;77.35;43.70;;;;;;;9.86;100.00;101314.31;4978629;28;20114;-80
2023/05/02 02:31:56;;;;;;;77.72;42.78;;;;;;;9.84;100.00;101306.63;4978271;28;20464;-79
2023/05/02 02:34:23;;;;;;;72.68;42.83;;;;;;;9.89;100.00;101308.81;4979315;28;20153;-80
2023/05/02 02:36:56;;;;;;;76.55;41.17;;;;;;;9.92;100.00;101308.56;4977770;28;20146;-79
2023/05/02 02:39:42;;;;;;;68.25;40.88;;;;;;;9.91;100.00;101306.91;4978735;28;20107;-80
2023/05/02 02:42:14;;;;;;;70.85;39.88;;;;;;;9.90;100.00;101300.84;4978349;28;20134;-79
2023/05/02 02:44:50;;;;;;;72.90;39.65;;;;;;;9.85;100.00;101305.66;4978816;28;20137;-79
2023/05/02 02:47:24;;;;;;;75.88;40.20;;;;;;;9.96;100.00;101310.75;4978664;28;20086;-79
2023/05/02 02:50:09;;;;;;;72.15;39.70;;;;;;;9.94;100.00;101312.66;4978522;28;20074;-79
2023/05/02 02:52:48;;;;;;;67.63;39.08;;;;;;;9.97;100.00;101317.63;4979027;28;20050;-79
2023/05/02 02:55:28;;;;;;;69.45;36.38;;;;;;;9.99;100.00;101314.88;4977837;28;20086;-80
2023/05/02 02:58:00;;;;;;;61.70;36.13;;;;;;;9.96;100.00;101308.13;4972408;28;20062;-79
2023/05/02 03:00:28;;;;;;;60.13;34.53;;;;;;;9.98;100.00;101311.44;4978136;28;20137;-79
2023/05/02 03:02:56;;;;;;;57.80;34.75;;;;;;;10.00;100.00;101308.69;4980866;28;20052;-79
2023/05/02 03:05:23;;;;;;;58.45;35.45;;;;;;;9.99;100.00;101304.41;4979512;28;20047;-79
2023/05/02 03:07:51;;;;;;;60.60;36.38;;;;;;;9.98;100.00;101314.03;4979734;28;20465;-79
2023/05/02 03:10:18;;;;;;;65.85;38.70;;;;;;;10.06;100.00;101318.59;4979433;28;20110;-78
2023/05/02 03:12:44;;;;;;;72.70;42.55;;;;;;;10.03;100.00;101321.47;4980242;28;20578;-79
2023/05/02 03:15:25;;;;;;;70.97;41.47;;;;;;;9.98;100.00;101323.69;4979431;28;20107;-78
2023/05/02 03:17:51;;;;;;;79.05;43.83;;;;;;;10.01;100.00;101335.66;4975354;28;20125;-79
2023/05/02 03:20:18;;;;;;;72.88;42.65;;;;;;;9.97;100.00;101332.47;4975442;28;20042;-78
2023/05/02 03:22:45;;;;;;;70.75;42.97;;;;;;;10.02;100.00;101334.69;4974405;28;20054;-77
2023/05/02 03:25:13;;;;;;;71.18;40.80;;;;;;;10.02;100.00;101338.13;4972805;28;20055;-78
2023/05/02 03:27:40;;;;;;;76.05;41.83;;;;;;;10.01;100.00;101341.72;4974665;28;20085;-78
2023/05/02 03:30:08;;;;;;;71.78;40.55;;;;;;;10.05;100.00;101337.88;4975591;28;20047;-79
2023/05/02 03:32:35;;;;;;;71.75;40.78;;;;;;;10.01;100.00;101341.72;4968585;28;20452;-79
2023/05/02 03:35:01;;;;;;;65.55;39.15;;;;;;;10.02;100.00;101347.75;4976468;28;20110;-79
2023/05/02 03:37:28;;;;;;;67.95;38.22;;;;;;;10.01;100.00;101339.09;4976155;28;20090;-80
2023/05/02 03:39:54;;;;;;;69.65;40.17;;;;;;;9.98;100.00;101344.59;4976386;28;20489;-79
2023/05/02 03:42:22;;;;;;;64.90;36.38;;;;;;;10.06;100.00;101349.97;4973699;28;20051;-78
2023/05/02 03:44:52;;;;;;;68.35;37.95;;;;;;;10.06;100.00;101352.59;4972229;28;20112;-77
2023/05/02 03:47:19;;;;;;;64.70;36.55;;;;;;;10.04;100.00;101348.47;4970285;28;20082;-78
2023/05/02 03:49:46;;;;;;;61.55;36.63;;;;;;;10.06;100.00;101359.59;4971285;28;20053;-77
2023/05/02 03:52:12;;;;;;;63.53;35.90;;;;;;;10.06;100.00;101351.75;4971242;28;20153;-78
2023/05/02 03:54:39;;;;;;;62.33;34.78;;;;;;;10.05;100.00;101350.09;4972855;28;20096;-78
2023/05/02 03:57:06;;;;;;;67.45;35.38;;;;;;;10.07;100.00;101358.66;4971654;28;20110;-78
2023/05/02 03:59:40;;;;;;;68.88;34.38;;;;;;;10.08;100.00;101355.06;4964669;28;20088;-77
2023/05/02 04:02:06;;;;;;;56.88;33.28;;;;;;;10.14;100.00;101360.59;4971778;28;20047;-78
2023/05/02 04:04:33;;;;;;;59.38;33.25;;;;;;;10.13;100.00;101360.72;4971927;28;20138;-77
2023/05/02 04:07:00;;;;;;;53.13;30.30;;;;;;;10.08;100.00;101361.13;4970155;28;20069;-77
2023/05/02 04:09:26;;;;;;;57.03;31.02;;;;;;;10.13;100.00;101373.81;4969459;28;20039;-78
2023/05/02 04:11:54;;;;;;;55.08;30.70;;;;;;;10.18;100.00;101356.75;4969458;28;20047;-76
2023/05/02 04:16:50;;;;;;;52.03;30.80;;;;;;;10.18;100.00;101372.44;4981859;28;20054;-77
2023/05/02 04:19:17;;;;;;;50.13;29.70;;;;;;;10.16;100.00;101369.13;4989377;28;20046;-79
2023/05/02 04:21:44;;;;;;;54.17;30.38;;;;;;;10.14;100.00;101363.22;4991878;28;20078;-78
2023/05/02 04:24:10;;;;;;;54.53;29.10;;;;;;;10.20;100.00;101367.09;4992019;28;20133;-79
2023/05/02 04:26:37;;;;;;;53.72;29.08;;;;;;;10.16;100.00;101370.91;4997922;28;20084;-79
2023/05/02 04:29:04;;;;;;;54.60;28.52;;;;;;;10.18;100.00;101372.44;4984369;28;20059;-78
2023/05/02 04:31:31;;;;;;;59.55;29.75;;;;;;;10.21;100.00;101382.66;4990232;28;20449;-78
2023/05/02 04:33:59;;;;;;;50.67;28.65;;;;;;;10.19;100.00;101381.13;4990204;28;20046;-78
2023/05/02 04:36:27;;;;;;;50.95;28.90;;;;;;;10.20;100.00;101396.69;4994465;28;20585;-78
2023/05/02 04:38:54;;;;;;;55.15;30.50;;;;;;;10.18;100.00;101398.59;4991248;28;20062;-79
2023/05/02 04:41:22;;;;;;;52.85;30.17;;;;;;;10.15;100.00;101401.47;4996467;28;20138;-79
2023/05/02 04:43:48;;;;;;;48.42;29.15;;;;;;;10.12;100.00;101414.81;4990673;28;20046;-78
2023/05/02 04:46:16;;;;;;;54.85;30.60;;;;;;;10.13;100.00;101392.09;4988914;28;20082;-78
2023/05/02 04:48:43;;;;;;;51.78;30.40;;;;;;;10.16;100.00;101405.75;4990253;28;20056;-78
2023/05/02 04:51:11;;;;;;;53.63;31.45;;;;;;;10.28;100.00;101404.72;4989337;28;20498;-78
2023/05/02 04:53:38;;;;;;;52.58;30.17;;;;;;;10.33;100.00;101411.31;4990061;28;20129;-78
2023/05/02 04:56:06;;;;;;;52.78;30.80;;;;;;;10.38;100.00;101415.19;4989533;28;20137;-78
2023/05/02 04:58:33;;;;;;;47.88;29.00;;;;;;;10.38;100.00;101412.56;4992709;28;20482;-78
2023/05/02 05:01:00;;;;;;;48.67;28.25;;;;;;;10.45;100.00;101423.31;4990791;28;20107;-76
2023/05/02 05:03:28;;;;;;;46.25;26.77;;;;;;;10.42;100.00;101421.78;4986970;28;20050;-79
2023/05/02 05:05:55;;;;;;;50.30;25.80;;;;;;;10.42;100.00;101421.78;4995875;28;20054;-79
2023/05/02 05:08:23;;;;;;;46.35;26.42;;;;;;;10.43;100.00;101418.19;4990788;28;20081;-79
2023/05/02 05:10:50;;;;;;;43.20;25.83;;;;;;;10.44;100.00;101434.72;4991021;28;20050;-78
2023/05/02 05:13:17;;;;;;;44.72;25.20;;;;;;;10.42;100.00;101432.25;4991277;28;20157;-78
2023/05/02 05:15:44;;;;;;;46.35;25.25;;;;;;;10.36;100.00;101434.59;4991865;28;20566;-79
2023/05/02 05:18:10;;;;;;;46.97;25.33;;;;;;;10.30;100.00;101442.03;4993402;28;20057;-78
2023/05/02 05:20:37;;;;;;;43.70;25.52;;;;;;;10.34;100.00;101444.38;4991015;28;20053;-78
2023/05/02 05:23:04;;;;;;;42.53;25.00;;;;;;;10.36;100.00;101447.69;4991061;28;20050;-78
2023/05/02 05:25:32;;;;;;;45.40;25.08;;;;;;;10.38;100.00;101441.34;4989434;28;20569;-78
2023/05/02 05:27:59;;;;;;;42.00;25.15;;;;;;;10.43;100.00;101443.53;4988697;28;20046;-77
2023/05/02 05:30:26;;;;;;;41.85;23.73;;;;;;;10.44;100.00;101450.44;4988989;28;20066;-77
2023/05/02 05:32:53;;;;;;;43.03;23.35;;;;;;;10.49;100.00;101443.81;4993081;28;20133;-78
2023/05/02 05:35:19;;;;;;;45.55;24.13;;;;;;;10.54;100.00;101453.88;4999704;28;20500;-78
2023/05/02 05:37:46;;;;;;;43.15;23.40;;;;;;;10.55;100.00;101460.78;4989515;28;20070;-78
2023/05/02 05:40:13;;;;;;;44.25;24.65;;;;;;;10.59;100.00;101464.78;4990090;28;20121;-78
2023/05/02 05:42:41;;;;;;;41.03;23.35;;;;;;;10.60;100.00;101466.44;4990988;28;20069;-77
2023/05/02 05:45:09;;;;;;;38.88;22.40;;;;;;;10.52;100.00;101464.50;4990279;28;20463;-77
2023/05/02 05:47:35;;;;;;;44.13;24.02;;;;;;;10.50;100.00;101471.66;4990446;28;20057;-78
2023/05/02 05:50:02;;;;;;;44.13;23.63;;;;;;;10.47;100.00;101471.09;4982799;28;20065;-78
2023/05/02 05:52:28;;;;;;;45.33;23.70;;;;;;;10.47;100.00;101481.56;4988130;28;20584;-77
2023/05/02 05:54:55;;;;;;;45.55;25.77;;;;;;;10.39;100.00;101487.50;4988659;28;20129;-77
2023/05/02 05:57:22;;;;;;;43.03;24.67;;;;;;;10.40;100.00;101489.09;4992780;28;20059;-78
2023/05/02 05:59:50;;;;;;;49.55;24.98;;;;;;;10.46;100.00;101499.03;4989864;28;20043;-78
2023/05/02 06:02:18;;;;;;;42.10;24.73;;;;;;;10.41;100.00;101503.03;4992888;28;20046;-78
2023/05/02 06:04:45;;;;;;;42.20;23.80;;;;;;;10.40;100.00;101501.41;4991587;28;20080;-78
2023/05/02 06:07:12;;;;;;;46.33;25.02;;;;;;;10.49;100.00;101508.41;4992542;28;20418;-77
2023/05/02 06:09:39;;;;;;;45.97;24.38;;;;;;;10.45;100.00;101509.66;4991786;28;20066;-77
2023/05/02 06:12:06;;;;;;;44.63;25.55;;;;;;;10.34;100.00;101509.78;4994318;28;20046;-77
2023/05/02 06:14:32;;;;;;;49.63;24.35;;;;;;;10.27;100.00;101514.72;4991132;28;20050;-77
2023/05/02 06:17:00;;;;;;;46.20;25.02;;;;;;;10.35;100.00;101519.28;5022560;28;20068;-75
2023/05/02 06:19:27;;;;;;;41.70;24.17;;;;;;;10.42;100.00;101523.00;4992135;28;20403;-77
2023/05/02 06:21:53;;;;;;;45.72;25.33;;;;;;;10.45;100.00;101525.34;4991111;28;20046;-77
2023/05/02 06:24:20;;;;;;;39.78;24.10;;;;;;;10.42;100.00;101534.28;4996370;28;20537;-76
2023/05/02 06:26:46;;;;;;;45.20;25.80;;;;;;;10.35;100.00;101541.03;5004317;28;20089;-77
2023/05/02 06:29:13;;;;;;;39.65;24.88;;;;;;;10.34;100.00;101538.56;4999260;28;20070;-77
2023/05/02 06:31:40;;;;;;;38.95;23.55;;;;;;;10.45;100.00;101551.50;5011110;28;20051;-77
2023/05/02 06:34:08;;;;;;;46.60;25.23;;;;;;;10.63;100.00;101544.69;5009448;28;20062;-75
2023/05/02 06:36:35;;;;;;;46.03;24.73;;;;;;;10.62;100.00;101556.13;4989638;28;20053;-76
2023/05/02 06:39:01;;;;;;;40.13;23.40;;;;;;;10.66;100.00;101559.28;4991092;28;20046;-75
2023/05/02 06:41:28;;;;;;;40.85;22.95;;;;;;;10.71;100.00;101555.31;4992100;28;20062;-77
2023/05/02 06:43:54;;;;;;;41.55;23.65;;;;;;;10.78;100.00;101563.47;4990478;28;20055;-77
2023/05/02 06:46:21;;;;;;;38.55;22.73;;;;;;;10.67;100.00;101568.81;4989833;28;20434;-77
2023/05/02 06:48:48;;;;;;;35.28;22.48;;;;;;;10.71;100.00;101567.56;4990730;28;20085;-76
2023/05/02 06:51:18;;;;;;;37.88;22.02;;;;;;;10.74;100.00;101564.69;4991582;28;20073;-78
2023/05/02 06:53:44;;;;;;;39.90;21.90;;;;;;;10.76;100.00;101575.88;4990859;28;20498;-78
2023/05/02 06:56:11;;;;;;;40.17;22.38;;;;;;;10.73;100.00;101576.97;4990772;28;20042;-77
2023/05/02 06:58:38;;;;;;;36.00;21.33;;;;;;;10.56;100.00;101581.03;4990115;28;20085;-76
2023/05/02 07:01:05;;;;;;;30.02;19.27;;;;;;;10.43;100.00;101579.59;4989957;28;20057;-78
2023/05/02 07:03:31;;;;;;;24.33;15.02;;;;;;;10.30;100.00;101591.13;4989372;28;20144;-78
2023/05/02 07:05:58;;;;;;;24.30;14.68;;;;;;;10.22;100.00;101595.34;4988513;28;20120;-77
2023/05/02 07:08:26;;;;;;;22.85;12.85;;;;;;;10.20;100.00;101600.72;4987452;28;20073;-77
2023/05/02 07:10:53;;;;;;;22.80;11.95;;;;;;;10.29;100.00;101605.16;4989151;28;20042;-77
2023/05/02 07:13:19;;;;;;;20.13;12.10;;;;;;;10.27;100.00;101601.84;4988901;28;20058;-77
2023/05/02 07:15:46;;;;;;;17.80;11.50;;;;;;;10.37;100.00;101598.47;4983217;28;20073;-77
2023/05/02 07:18:13;;;;;;;14.65;10.13;;;;;;;10.34;100.00;101601.34;4989918;28;20103;-78
2023/05/02 07:20:41;;;;;;;16.55;9.85;;;;;;;10.42;100.00;101612.78;4989907;28;20074;-78
2023/05/02 07:23:07;;;;;;;20.48;10.30;;;;;;;10.50;100.00;101606.91;4989868;28;20072;-77
2023/05/02 07:25:36;;;;;;;15.15;9.82;;;;;;;10.68;100.00;101602.69;4991667;28;20046;-78
2023/05/02 07:28:03;;;;;;;16.33;9.95;;;;;;;10.67;100.00;101619.38;5004662;28;20054;-78
2023/05/02 07:30:29;;;;;;;18.35;11.05;;;;;;;10.71;100.00;101615.53;4999868;28;20073;-79
2023/05/02 07:32:56;;;;;;;14.75;9.23;;;;;;;10.60;100.00;101618.22;5008726;28;20125;-77
2023/05/02 07:35:22;;;;;;;15.18;9.57;;;;;;;10.67;100.00;101631.63;4979206;28;20546;-77
2023/05/02 07:37:49;;;;;;;13.65;9.18;;;;;;;10.78;100.00;101632.38;4987357;28;20639;-77
2023/05/02 07:40:16;;;;;;;17.90;10.07;;;;;;;10.89;100.00;101629.63;4990171;28;20074;-77
2023/05/02 07:42:44;;;;;;;18.45;10.60;;;;;;;11.05;100.00;101628.28;5017395;28;20046;-77
2023/05/02 07:45:11;;;;;;;21.05;9.70;;;;;;;11.22;100.00;101632.88;4988929;28;20437;-77
2023/05/02 07:47:37;;;;;;;17.85;9.48;;;;;;;11.27;100.00;101633.31;4987504;28;20073;-77
2023/05/02 07:50:05;;;;;;;16.27;9.75;;;;;;;11.37;100.00;101638.53;4990573;28;20042;-76
2023/05/02 07:52:32;;;;;;;17.08;9.65;;;;;;;11.38;100.00;101643.63;5003104;28;20060;-78
2023/05/02 07:54:58;;;;;;;18.15;9.07;;;;;;;11.45;100.00;101641.28;5008513;28;20133;-77
2023/05/02 07:57:26;;;;;;;14.32;9.27;;;;;;;11.29;99.90;101653.16;4979998;28;20519;-76
2023/05/02 07:59:56;;;;;;;12.70;8.60;;;;;;;11.29;99.27;101653.16;4988822;28;20129;-76
2023/05/02 08:02:22;;;;;;;12.35;8.50;;;;;;;11.27;98.68;101656.88;4992494;28;20187;-76
2023/05/02 08:04:49;;;;;;;13.05;8.15;;;;;;;11.33;98.50;101645.03;4988174;28;20129;-76
2023/05/02 08:07:16;;;;;;;13.65;8.50;;;;;;;11.59;97.84;101652.22;4987018;28;20049;-76
2023/05/02 08:09:43;;;;;;;12.70;7.82;;;;;;;11.75;97.03;101643.78;4989040;28;20050;-76
2023/05/02 08:12:09;;;;;;;16.48;7.80;;;;;;;11.72;96.51;101654.56;4992440;28;20039;-76
2023/05/02 08:14:36;;;;;;;16.67;7.70;;;;;;;11.70;95.74;101647.81;4980336;28;20058;-77
2023/05/02 08:17:04;;;;;;;10.70;7.00;;;;;;;12.00;95.00;101663.38;4987722;28;20432;-77
2023/05/02 08:19:31;;;;;;;12.73;7.10;;;;;;;12.02;93.60;101661.47;4987905;28;20407;-77
2023/05/02 08:21:58;;;;;;;12.35;7.38;;;;;;;12.17;93.18;101670.56;4988849;28;20525;-78
2023/05/02 08:24:25;;;;;;;12.85;7.07;;;;;;;11.96;92.76;101664.63;4990273;28;20483;-78
2023/05/02 08:26:52;;;;;;;11.73;7.10;;;;;;;11.73;93.10;101676.38;4989544;28;20466;-78
2023/05/02 08:29:18;;;;;;;13.20;6.93;;;;;;;11.63;93.63;101678.97;4987579;28;20540;-77
2023/05/02 08:31:45;;;;;;;13.10;7.05;;;;;;;11.58;93.38;101687.25;4972847;28;20117;-77
2023/05/02 08:34:13;;;;;;;12.50;7.40;;;;;;;11.66;93.23;101681.31;4975844;28;20050;-78
2023/05/02 08:36:39;;;;;;;13.52;6.32;;;;;;;11.66;91.12;101685.75;4978434;28;21105;-78
2023/05/02 08:39:08;;;;;;;13.48;6.50;;;;;;;12.04;90.17;101666.56;4977472;28;20170;-78
2023/05/02 08:41:38;;;;;;;8.82;5.85;;;;;;;12.50;89.36;101668.38;4980889;28;20062;-78
2023/05/02 08:44:06;;;;;;;14.10;5.57;;;;;;;12.70;87.74;101669.16;4979177;28;20054;-76
2023/05/02 08:46:36;;;;;;;9.45;5.55;;;;;;;13.03;86.40;101663.31;4977448;28;20049;-77
2023/05/02 08:49:02;;;;;;;9.52;5.38;;;;;;;13.32;84.89;101668.41;4982211;28;20486;-78
2023/05/02 08:51:32;;;;;;;10.15;5.10;;;;;;;13.28;82.89;101672.31;4987926;28;20060;-77
2023/05/02 08:54:02;;;;;;;8.73;5.43;;;;;;;13.44;82.08;101676.91;4985828;28;20051;-77
2023/05/02 08:56:28;;;;;;;17.65;9.20;;;;;;;12.31;82.71;101671.88;4980813;28;20077;-77
2023/05/02 08:58:55;;;;;;;16.13;7.43;;;;;;;11.99;83.79;101685.34;4980786;28;20192;-77
2023/05/02 09:01:26;;;;;;;14.60;7.60;;;;;;;11.64;84.68;101694.56;4985533;28;20213;-76
2023/05/02 09:03:54;;;;;;;12.20;7.05;;;;;;;11.33;85.22;101692.19;4978010;28;20522;-76
2023/05/02 09:06:22;;;;;;;18.13;7.13;;;;;;;11.49;85.32;101697.72;4978320;28;20047;-75
2023/05/02 09:08:52;;;;;;;16.35;6.78;;;;;;;11.52;84.95;101705.31;4977800;28;20142;-77
2023/05/02 09:11:20;;;;;;;19.15;7.38;;;;;;;11.56;85.65;101711.94;4983186;28;20070;-76
2023/05/02 09:13:48;;;;;;;11.38;7.40;;;;;;;11.60;84.77;101708.91;4983121;28;20500;-77
2023/05/02 09:16:15;;;;;;;15.13;8.27;;;;;;;11.53;84.06;101718.28;4982446;28;20504;-78
2023/05/02 09:18:44;;;;;;;10.00;8.02;;;;;;;11.46;83.82;101711.09;4979452;28;20528;-77
2023/05/02 09:21:12;;;;;;;16.00;9.93;;;;;;;11.49;82.96;101719.53;4984191;28;20391;-77
2023/05/02 09:23:41;;;;;;;11.15;8.65;;;;;;;11.84;83.07;101718.19;4984999;28;20050;-77
2023/05/02 09:26:13;;;;;;;13.20;8.95;;;;;;;11.90;82.72;101726.34;4987371;28;20050;-78
2023/05/02 09:28:42;;;;;;;15.48;8.93;;;;;;;11.65;83.19;101721.63;4974871;28;20050;-78
2023/05/02 09:31:10;;;;;;;12.68;8.60;;;;;;;11.72;83.87;101733.22;4983388;28;20130;-76
2023/05/02 09:33:40;;;;;;;12.27;8.25;;;;;;;11.57;83.41;101726.72;4975181;28;20125;-78
2023/05/02 09:36:07;;;;;;;14.23;8.27;;;;;;;11.70;83.50;101739.56;4982303;28;20514;-76
2023/05/02 09:38:34;;;;;;;13.70;7.78;;;;;;;11.70;83.25;101734.31;4987432;28;20221;-76
2023/05/02 09:41:02;;;;;;;14.13;8.82;;;;;;;11.86;82.77;101742.50;4989398;28;20038;-76
2023/05/02 09:43:31;;;;;;;13.73;9.10;;;;;;;11.73;81.76;101747.16;4986131;28;20064;-77
2023/05/02 09:45:58;;;;;;;18.70;9.35;;;;;;;11.90;82.15;101741.25;5004535;28;20436;-76
2023/05/02 09:48:26;;;;;;;17.92;9.65;;;;;;;12.21;81.47;101745.41;5002032;28;20054;-77
2023/05/02 09:50:55;;;;;;;19.15;10.90;;;;;;;12.24;80.99;101744.31;5003384;28;20073;-77
2023/05/02 09:53:24;;;;;;;18.20;10.80;;;;;;;12.36;80.33;101748.41;4985751;28;20104;-77
2023/05/02 09:56:00;;;;;;;16.58;10.70;;;;;;;12.62;79.79;101753.91;4989923;28;20528;-78
2023/05/02 09:58:26;;;;;;;17.50;11.07;;;;;;;12.75;79.55;101759.69;4986895;28;20425;-77
2023/05/02 10:00:55;;;;;;;17.90;11.45;;;;;;;12.63;78.22;101750.31;4989659;28;20125;-77
2023/05/02 10:03:23;;;;;;;23.23;10.38;;;;;;;12.21;77.70;101748.03;4980800;28;20543;-76
2023/05/02 10:05:52;;;;;;;14.68;9.75;;;;;;;12.38;77.51;101740.38;4992277;28;20093;-77
2023/05/02 10:08:20;;;;;;;11.85;8.52;;;;;;;12.71;77.69;101746.97;4984622;28;20059;-77
2023/05/02 10:10:54;;;;;;;10.98;6.68;;;;;;;12.37;76.75;101749.22;4985609;28;20538;-77
2023/05/02 10:13:23;;;;;;;9.82;6.65;;;;;;;12.34;76.03;101746.88;4992094;28;20149;-78
2023/05/02 10:16:00;;;;;;;12.23;6.10;;;;;;;12.30;76.13;101752.41;5009476;23;20073;-81
2023/05/02 10:18:33;;;;;;;10.15;6.15;;;;;;;12.45;75.34;101744.94;4981389;28;20055;-81
2023/05/02 10:21:05;;;;;;;14.20;7.07;;;;;;;12.13;75.16;101761.00;4992504;28;20074;-80
2023/05/02 10:23:33;;;;;;;12.50;7.25;;;;;;;12.04;75.82;101768.88;4986267;28;20150;-81
2023/05/02 10:25:59;;;;;;;14.27;10.02;;;;;;;12.26;77.04;101772.06;4985571;28;20085;-81
2023/05/02 10:28:27;;;;;;;17.98;10.75;;;;;;;12.60;76.17;101755.84;4977039;28;20525;-81
2023/05/02 10:30:54;;;;;;;18.80;10.48;;;;;;;12.58;75.80;101765.66;4979459;28;20057;-81
2023/05/02 10:33:22;;;;;;;17.52;10.90;;;;;;;12.54;76.27;101762.47;4976148;28;20059;-80
2023/05/02 10:35:50;;;;;;;17.23;11.15;;;;;;;12.27;76.61;101776.34;4981414;28;20114;-82
2023/05/02 10:38:19;;;;;;;19.27;10.88;;;;;;;12.22;77.23;101767.22;4976581;28;20133;-81
2023/05/02 10:40:55;;;;;;;15.43;11.00;;;;;;;12.14;76.93;101773.16;4974604;28;20070;-79
2023/05/02 10:43:25;;;;;;;19.20;11.85;;;;;;;12.40;76.90;101770.78;4982030;28;20121;-79
2023/05/02 10:45:53;;;;;;;14.57;10.30;;;;;;;12.48;75.79;101777.97;4981912;28;20154;-79
2023/05/02 10:48:22;;;;;;;14.95;9.60;;;;;;;12.61;75.36;101758.31;4985695;28;20058;-79
2023/05/02 10:50:55;;;;;;;11.48;8.60;;;;;;;12.41;75.09;101768.97;4979648;28;20073;-79
2023/05/02 10:53:26;;;;;;;16.08;9.32;;;;;;;12.59;75.30;101770.75;4971322;28;20467;-79
2023/05/02 10:56:14;;;;;;;12.60;8.07;;;;;;;12.62;74.58;101759.97;4992537;28;20050;-80
2023/05/02 10:58:41;;;;;;;13.65;8.68;;;;;;;12.46;73.99;101753.66;4984953;28;20063;-79
2023/05/02 11:01:40;;;;;;;15.75;8.13;;;;;;;12.86;73.51;101767.34;4995227;28;20051;-79
2023/05/02 11:04:09;;;;;;;13.55;9.02;;;;;;;12.74;73.22;101767.69;4993708;28;20047;-79
2023/05/02 11:06:57;;;;;;;14.07;8.88;;;;;;;12.75;73.15;101764.94;4994495;28;20074;-80
2023/05/02 11:09:32;;;;;;;16.25;8.40;;;;;;;12.98;72.77;101759.31;4996637;28;20489;-80
2023/05/02 11:12:00;;;;;;;19.40;9.10;;;;;;;13.02;73.10;101768.56;4987759;28;20388;-79
2023/05/02 11:14:46;;;;;;;14.27;8.90;;;;;;;13.10;72.70;101768.66;5000655;28;20049;-79
2023/05/02 11:17:13;;;;;;;12.90;7.93;;;;;;;12.95;71.63;101761.25;4981595;28;20120;-80